sensor_id;sensor_type;location;lat;lon;timestamp;P1;durP1;ratioP1;P2;durP2;ratioP2
69414;SDS011;56608;43.530;-5.652;2023-04-16T00:00:00;23.10;;;13.30;;
69414;SDS011;56608;43.530;-5.652;2023-04-16T00:01:04;28.70;;;12.95;;
69414;SDS011;56608;43.530;-5.652;2023-04-16T00:03:06;26.05;;;12.45;;
69414;SDS011;56608;43.530;-5.652;2023-04-16T00:04:08;26.73;;;13.68;;
69414;SDS011;56608;43.530;-5.652;2023-04-16T00:05:09;28.85;;;13.10;;
69414;SDS011;56608;43.530;-5.652;2023-04-16T00:06:10;23.42;;;12.52;;
69414;SDS011;56608;43.530;-5.652;2023-04-16T00:08:12;23.60;;;11.43;;
69414;SDS011;56608;43.530;-5.652;2023-04-16T00:09:14;24.85;;;12.25;;
69414;SDS011;56608;43.530;-5.652;2023-04-16T00:10:15;25.57;;;12.33;;
69414;SDS011;56608;43.530;-5.652;2023-04-16T00:11:17;27.85;;;13.15;;
69414;SDS011;56608;43.530;-5.652;2023-04-16T00:12:18;24.20;;;13.20;;
69414;SDS011;56608;43.530;-5.652;2023-04-16T00:13:19;22.62;;;12.65;;
69414;SDS011;56608;43.530;-5.652;2023-04-16T00:14:20;25.90;;;13.02;;
69414;SDS011;56608;43.530;-5.652;2023-04-16T00:15:22;27.50;;;13.50;;
69414;SDS011;56608;43.530;-5.652;2023-04-16T00:16:22;25.02;;;12.32;;
69414;SDS011;56608;43.530;-5.652;2023-04-16T00:17:22;24.93;;;11.90;;
69414;SDS011;56608;43.530;-5.652;2023-04-16T00:18:24;28.15;;;12.75;;
69414;SDS011;56608;43.530;-5.652;2023-04-16T00:19:27;23.70;;;12.25;;
69414;SDS011;56608;43.530;-5.652;2023-04-16T00:20:28;27.35;;;12.75;;
69414;SDS011;56608;43.530;-5.652;2023-04-16T00:21:30;32.08;;;13.65;;
69414;SDS011;56608;43.530;-5.652;2023-04-16T00:22:31;23.33;;;12.40;;
69414;SDS011;56608;43.530;-5.652;2023-04-16T00:23:33;28.83;;;13.10;;
69414;SDS011;56608;43.530;-5.652;2023-04-16T00:24:33;27.15;;;13.60;;
69414;SDS011;56608;43.530;-5.652;2023-04-16T00:25:35;27.80;;;12.90;;
69414;SDS011;56608;43.530;-5.652;2023-04-16T00:26:37;28.58;;;13.50;;
69414;SDS011;56608;43.530;-5.652;2023-04-16T00:27:38;29.60;;;13.30;;
69414;SDS011;56608;43.530;-5.652;2023-04-16T00:28:39;29.42;;;12.65;;
69414;SDS011;56608;43.530;-5.652;2023-04-16T00:29:40;25.40;;;12.30;;
69414;SDS011;56608;43.530;-5.652;2023-04-16T00:30:42;28.70;;;13.30;;
69414;SDS011;56608;43.530;-5.652;2023-04-16T00:31:43;22.70;;;12.70;;
69414;SDS011;56608;43.530;-5.652;2023-04-16T00:32:44;21.60;;;12.80;;
69414;SDS011;56608;43.530;-5.652;2023-04-16T00:33:46;28.50;;;13.15;;
69414;SDS011;56608;43.530;-5.652;2023-04-16T00:34:47;24.75;;;12.25;;
69414;SDS011;56608;43.530;-5.652;2023-04-16T00:35:49;26.60;;;13.10;;
69414;SDS011;56608;43.530;-5.652;2023-04-16T00:36:51;27.80;;;13.10;;
69414;SDS011;56608;43.530;-5.652;2023-04-16T00:37:52;30.80;;;13.40;;
69414;SDS011;56608;43.530;-5.652;2023-04-16T00:38:53;24.30;;;13.40;;
69414;SDS011;56608;43.530;-5.652;2023-04-16T00:39:54;27.85;;;13.60;;
69414;SDS011;56608;43.530;-5.652;2023-04-16T00:40:56;26.37;;;13.23;;
69414;SDS011;56608;43.530;-5.652;2023-04-16T00:41:58;27.60;;;13.10;;
69414;SDS011;56608;43.530;-5.652;2023-04-16T00:43:00;26.15;;;13.05;;
69414;SDS011;56608;43.530;-5.652;2023-04-16T00:44:01;29.58;;;13.90;;
69414;SDS011;56608;43.530;-5.652;2023-04-16T00:45:03;30.83;;;14.73;;
69414;SDS011;56608;43.530;-5.652;2023-04-16T00:46:05;27.75;;;14.05;;
69414;SDS011;56608;43.530;-5.652;2023-04-16T00:47:07;24.75;;;13.50;;
69414;SDS011;56608;43.530;-5.652;2023-04-16T00:48:09;28.20;;;14.70;;
69414;SDS011;56608;43.530;-5.652;2023-04-16T00:50:10;23.45;;;13.80;;
69414;SDS011;56608;43.530;-5.652;2023-04-16T00:51:12;28.25;;;14.40;;
69414;SDS011;56608;43.530;-5.652;2023-04-16T00:52:13;30.05;;;14.35;;
69414;SDS011;56608;43.530;-5.652;2023-04-16T00:53:15;31.30;;;14.85;;
69414;SDS011;56608;43.530;-5.652;2023-04-16T00:54:15;26.80;;;13.90;;
69414;SDS011;56608;43.530;-5.652;2023-04-16T00:55:17;29.15;;;14.65;;
69414;SDS011;56608;43.530;-5.652;2023-04-16T00:56:21;33.15;;;16.20;;
69414;SDS011;56608;43.530;-5.652;2023-04-16T00:57:23;32.20;;;15.65;;
69414;SDS011;56608;43.530;-5.652;2023-04-16T00:58:25;29.80;;;15.40;;
69414;SDS011;56608;43.530;-5.652;2023-04-16T00:59:26;27.40;;;15.23;;
69414;SDS011;56608;43.530;-5.652;2023-04-16T01:00:29;30.20;;;15.00;;
69414;SDS011;56608;43.530;-5.652;2023-04-16T01:01:30;33.42;;;16.25;;
69414;SDS011;56608;43.530;-5.652;2023-04-16T01:02:32;28.48;;;15.77;;
69414;SDS011;56608;43.530;-5.652;2023-04-16T01:03:38;27.05;;;15.30;;
69414;SDS011;56608;43.530;-5.652;2023-04-16T01:04:45;25.15;;;15.00;;
69414;SDS011;56608;43.530;-5.652;2023-04-16T01:05:47;27.25;;;13.10;;
69414;SDS011;56608;43.530;-5.652;2023-04-16T01:06:50;34.20;;;13.55;;
69414;SDS011;56608;43.530;-5.652;2023-04-16T01:07:52;27.80;;;11.45;;
69414;SDS011;56608;43.530;-5.652;2023-04-16T01:08:53;28.37;;;11.57;;
69414;SDS011;56608;43.530;-5.652;2023-04-16T01:09:54;25.23;;;10.80;;
69414;SDS011;56608;43.530;-5.652;2023-04-16T01:10:55;32.85;;;11.55;;
69414;SDS011;56608;43.530;-5.652;2023-04-16T01:11:57;30.45;;;10.90;;
69414;SDS011;56608;43.530;-5.652;2023-04-16T01:12:58;35.10;;;11.90;;
69414;SDS011;56608;43.530;-5.652;2023-04-16T01:15:01;30.75;;;10.55;;
69414;SDS011;56608;43.530;-5.652;2023-04-16T01:16:04;31.40;;;10.30;;
69414;SDS011;56608;43.530;-5.652;2023-04-16T01:17:10;34.00;;;9.80;;
69414;SDS011;56608;43.530;-5.652;2023-04-16T01:19:16;31.70;;;9.95;;
69414;SDS011;56608;43.530;-5.652;2023-04-16T01:20:16;24.45;;;8.88;;
69414;SDS011;56608;43.530;-5.652;2023-04-16T01:21:18;24.15;;;7.70;;
69414;SDS011;56608;43.530;-5.652;2023-04-16T01:22:19;21.92;;;7.28;;
69414;SDS011;56608;43.530;-5.652;2023-04-16T01:23:21;20.65;;;7.85;;
69414;SDS011;56608;43.530;-5.652;2023-04-16T01:25:22;17.05;;;6.30;;
69414;SDS011;56608;43.530;-5.652;2023-04-16T01:26:24;16.40;;;5.75;;
69414;SDS011;56608;43.530;-5.652;2023-04-16T01:27:25;15.45;;;5.47;;
69414;SDS011;56608;43.530;-5.652;2023-04-16T01:28:27;13.10;;;5.07;;
69414;SDS011;56608;43.530;-5.652;2023-04-16T01:29:28;16.10;;;5.55;;
69414;SDS011;56608;43.530;-5.652;2023-04-16T01:30:29;14.68;;;5.03;;
69414;SDS011;56608;43.530;-5.652;2023-04-16T01:32:32;17.70;;;5.37;;
69414;SDS011;56608;43.530;-5.652;2023-04-16T01:33:34;12.10;;;4.87;;
69414;SDS011;56608;43.530;-5.652;2023-04-16T01:34:35;16.17;;;4.40;;
69414;SDS011;56608;43.530;-5.652;2023-04-16T01:35:37;10.98;;;4.25;;
69414;SDS011;56608;43.530;-5.652;2023-04-16T01:36:38;14.30;;;4.85;;
69414;SDS011;56608;43.530;-5.652;2023-04-16T01:37:40;13.00;;;4.32;;
69414;SDS011;56608;43.530;-5.652;2023-04-16T01:38:41;15.88;;;5.28;;
69414;SDS011;56608;43.530;-5.652;2023-04-16T01:39:43;11.40;;;4.15;;
69414;SDS011;56608;43.530;-5.652;2023-04-16T01:40:44;13.15;;;4.53;;
69414;SDS011;56608;43.530;-5.652;2023-04-16T01:41:45;11.23;;;4.45;;
69414;SDS011;56608;43.530;-5.652;2023-04-16T01:42:47;16.92;;;4.87;;
69414;SDS011;56608;43.530;-5.652;2023-04-16T01:43:48;11.93;;;4.53;;
69414;SDS011;56608;43.530;-5.652;2023-04-16T01:44:49;8.88;;;4.30;;
69414;SDS011;56608;43.530;-5.652;2023-04-16T01:45:51;9.38;;;3.80;;
69414;SDS011;56608;43.530;-5.652;2023-04-16T01:46:59;11.25;;;4.05;;
69414;SDS011;56608;43.530;-5.652;2023-04-16T01:48:01;12.02;;;3.90;;
69414;SDS011;56608;43.530;-5.652;2023-04-16T01:49:04;12.35;;;4.00;;
69414;SDS011;56608;43.530;-5.652;2023-04-16T01:50:07;9.60;;;3.70;;
69414;SDS011;56608;43.530;-5.652;2023-04-16T01:51:09;10.65;;;4.00;;
69414;SDS011;56608;43.530;-5.652;2023-04-16T01:52:11;9.43;;;3.83;;
69414;SDS011;56608;43.530;-5.652;2023-04-16T01:53:12;8.05;;;3.47;;
69414;SDS011;56608;43.530;-5.652;2023-04-16T01:54:13;10.25;;;4.32;;
69414;SDS011;56608;43.530;-5.652;2023-04-16T01:55:15;8.68;;;3.97;;
69414;SDS011;56608;43.530;-5.652;2023-04-16T01:56:16;8.68;;;4.45;;
69414;SDS011;56608;43.530;-5.652;2023-04-16T01:57:18;9.02;;;4.82;;
69414;SDS011;56608;43.530;-5.652;2023-04-16T01:58:19;8.63;;;4.37;;
69414;SDS011;56608;43.530;-5.652;2023-04-16T01:59:20;9.70;;;4.97;;
69414;SDS011;56608;43.530;-5.652;2023-04-16T02:00:22;8.73;;;4.30;;
69414;SDS011;56608;43.530;-5.652;2023-04-16T02:01:23;10.40;;;4.90;;
69414;SDS011;56608;43.530;-5.652;2023-04-16T02:02:24;10.57;;;5.07;;
69414;SDS011;56608;43.530;-5.652;2023-04-16T02:03:29;7.85;;;5.00;;
69414;SDS011;56608;43.530;-5.652;2023-04-16T02:04:31;9.70;;;5.30;;
69414;SDS011;56608;43.530;-5.652;2023-04-16T02:05:32;9.95;;;5.15;;
69414;SDS011;56608;43.530;-5.652;2023-04-16T02:06:33;11.68;;;5.55;;
69414;SDS011;56608;43.530;-5.652;2023-04-16T02:07:35;12.20;;;5.05;;
69414;SDS011;56608;43.530;-5.652;2023-04-16T02:08:36;14.32;;;6.00;;
69414;SDS011;56608;43.530;-5.652;2023-04-16T02:09:38;11.50;;;5.40;;
69414;SDS011;56608;43.530;-5.652;2023-04-16T02:10:40;11.50;;;5.00;;
69414;SDS011;56608;43.530;-5.652;2023-04-16T02:11:42;10.93;;;5.32;;
69414;SDS011;56608;43.530;-5.652;2023-04-16T02:12:43;15.20;;;6.30;;
69414;SDS011;56608;43.530;-5.652;2023-04-16T02:13:44;13.45;;;5.90;;
69414;SDS011;56608;43.530;-5.652;2023-04-16T02:14:45;12.10;;;4.90;;
69414;SDS011;56608;43.530;-5.652;2023-04-16T02:15:48;11.45;;;5.95;;
69414;SDS011;56608;43.530;-5.652;2023-04-16T02:16:50;8.45;;;4.90;;
69414;SDS011;56608;43.530;-5.652;2023-04-16T02:17:52;11.40;;;5.43;;
69414;SDS011;56608;43.530;-5.652;2023-04-16T02:18:56;10.10;;;5.50;;
69414;SDS011;56608;43.530;-5.652;2023-04-16T02:19:58;12.48;;;5.30;;
69414;SDS011;56608;43.530;-5.652;2023-04-16T02:20:59;10.45;;;5.57;;
69414;SDS011;56608;43.530;-5.652;2023-04-16T02:22:00;12.05;;;5.65;;
69414;SDS011;56608;43.530;-5.652;2023-04-16T02:23:02;11.80;;;5.68;;
69414;SDS011;56608;43.530;-5.652;2023-04-16T02:24:03;11.12;;;5.32;;
69414;SDS011;56608;43.530;-5.652;2023-04-16T02:25:05;16.45;;;5.90;;
69414;SDS011;56608;43.530;-5.652;2023-04-16T02:26:06;13.30;;;6.20;;
69414;SDS011;56608;43.530;-5.652;2023-04-16T02:27:08;11.10;;;5.50;;
69414;SDS011;56608;43.530;-5.652;2023-04-16T02:28:10;12.13;;;6.10;;
69414;SDS011;56608;43.530;-5.652;2023-04-16T02:29:13;10.85;;;5.90;;
69414;SDS011;56608;43.530;-5.652;2023-04-16T02:30:16;14.05;;;6.15;;
69414;SDS011;56608;43.530;-5.652;2023-04-16T02:31:17;17.00;;;7.20;;
69414;SDS011;56608;43.530;-5.652;2023-04-16T02:32:19;13.85;;;7.00;;
69414;SDS011;56608;43.530;-5.652;2023-04-16T02:33:20;17.12;;;7.90;;
69414;SDS011;56608;43.530;-5.652;2023-04-16T02:35:23;15.48;;;7.57;;
69414;SDS011;56608;43.530;-5.652;2023-04-16T02:36:25;15.65;;;7.50;;
69414;SDS011;56608;43.530;-5.652;2023-04-16T02:37:27;14.25;;;6.90;;
69414;SDS011;56608;43.530;-5.652;2023-04-16T02:38:28;16.20;;;6.90;;
69414;SDS011;56608;43.530;-5.652;2023-04-16T02:39:30;15.57;;;8.00;;
69414;SDS011;56608;43.530;-5.652;2023-04-16T02:40:31;12.25;;;6.80;;
69414;SDS011;56608;43.530;-5.652;2023-04-16T02:41:32;16.55;;;7.12;;
69414;SDS011;56608;43.530;-5.652;2023-04-16T02:42:34;14.15;;;7.28;;
69414;SDS011;56608;43.530;-5.652;2023-04-16T02:43:35;12.60;;;6.75;;
69414;SDS011;56608;43.530;-5.652;2023-04-16T02:44:37;15.00;;;7.40;;
69414;SDS011;56608;43.530;-5.652;2023-04-16T02:45:38;15.13;;;6.90;;
69414;SDS011;56608;43.530;-5.652;2023-04-16T02:46:40;15.27;;;7.25;;
69414;SDS011;56608;43.530;-5.652;2023-04-16T02:47:41;16.90;;;7.00;;
69414;SDS011;56608;43.530;-5.652;2023-04-16T02:48:43;16.15;;;7.72;;
69414;SDS011;56608;43.530;-5.652;2023-04-16T02:49:43;14.55;;;6.80;;
69414;SDS011;56608;43.530;-5.652;2023-04-16T02:50:45;14.20;;;7.65;;
69414;SDS011;56608;43.530;-5.652;2023-04-16T02:51:46;12.75;;;7.07;;
69414;SDS011;56608;43.530;-5.652;2023-04-16T02:52:48;12.77;;;6.95;;
69414;SDS011;56608;43.530;-5.652;2023-04-16T02:53:49;11.93;;;7.00;;
69414;SDS011;56608;43.530;-5.652;2023-04-16T02:54:50;11.98;;;6.60;;
69414;SDS011;56608;43.530;-5.652;2023-04-16T02:55:51;12.67;;;7.40;;
69414;SDS011;56608;43.530;-5.652;2023-04-16T02:56:56;13.00;;;7.45;;
69414;SDS011;56608;43.530;-5.652;2023-04-16T02:57:57;11.60;;;6.60;;
69414;SDS011;56608;43.530;-5.652;2023-04-16T02:58:58;11.18;;;6.18;;
69414;SDS011;56608;43.530;-5.652;2023-04-16T03:00:00;13.50;;;6.90;;
69414;SDS011;56608;43.530;-5.652;2023-04-16T03:01:01;11.43;;;6.93;;
69414;SDS011;56608;43.530;-5.652;2023-04-16T03:02:02;12.00;;;6.60;;
69414;SDS011;56608;43.530;-5.652;2023-04-16T03:03:04;13.35;;;6.95;;
69414;SDS011;56608;43.530;-5.652;2023-04-16T03:04:05;13.45;;;6.07;;
69414;SDS011;56608;43.530;-5.652;2023-04-16T03:05:07;11.45;;;6.40;;
69414;SDS011;56608;43.530;-5.652;2023-04-16T03:06:09;12.40;;;7.10;;
69414;SDS011;56608;43.530;-5.652;2023-04-16T03:07:10;10.68;;;6.87;;
69414;SDS011;56608;43.530;-5.652;2023-04-16T03:08:12;11.10;;;6.80;;
69414;SDS011;56608;43.530;-5.652;2023-04-16T03:09:14;13.20;;;7.45;;
69414;SDS011;56608;43.530;-5.652;2023-04-16T03:10:15;11.70;;;6.80;;
69414;SDS011;56608;43.530;-5.652;2023-04-16T03:11:16;12.30;;;7.03;;
69414;SDS011;56608;43.530;-5.652;2023-04-16T03:12:18;11.50;;;6.60;;
69414;SDS011;56608;43.530;-5.652;2023-04-16T03:13:20;12.05;;;7.22;;
69414;SDS011;56608;43.530;-5.652;2023-04-16T03:14:21;9.73;;;6.12;;
69414;SDS011;56608;43.530;-5.652;2023-04-16T03:15:22;10.90;;;6.40;;
69414;SDS011;56608;43.530;-5.652;2023-04-16T03:16:24;11.00;;;7.20;;
69414;SDS011;56608;43.530;-5.652;2023-04-16T03:17:25;10.88;;;6.68;;
69414;SDS011;56608;43.530;-5.652;2023-04-16T03:18:27;9.00;;;6.45;;
69414;SDS011;56608;43.530;-5.652;2023-04-16T03:19:28;10.18;;;7.40;;
69414;SDS011;56608;43.530;-5.652;2023-04-16T03:20:29;11.30;;;7.00;;
69414;SDS011;56608;43.530;-5.652;2023-04-16T03:21:31;13.95;;;7.15;;
69414;SDS011;56608;43.530;-5.652;2023-04-16T03:22:32;12.60;;;7.30;;
69414;SDS011;56608;43.530;-5.652;2023-04-16T03:23:33;12.80;;;7.05;;
69414;SDS011;56608;43.530;-5.652;2023-04-16T03:24:36;15.40;;;8.65;;
69414;SDS011;56608;43.530;-5.652;2023-04-16T03:25:38;16.40;;;10.10;;
69414;SDS011;56608;43.530;-5.652;2023-04-16T03:26:40;17.60;;;9.75;;
69414;SDS011;56608;43.530;-5.652;2023-04-16T03:27:41;17.30;;;10.57;;
69414;SDS011;56608;43.530;-5.652;2023-04-16T03:28:43;14.95;;;9.73;;
69414;SDS011;56608;43.530;-5.652;2023-04-16T03:29:44;11.63;;;6.93;;
69414;SDS011;56608;43.530;-5.652;2023-04-16T03:30:51;11.35;;;6.25;;
69414;SDS011;56608;43.530;-5.652;2023-04-16T03:31:53;11.60;;;6.35;;
69414;SDS011;56608;43.530;-5.652;2023-04-16T03:32:54;10.60;;;6.60;;
69414;SDS011;56608;43.530;-5.652;2023-04-16T03:33:56;12.23;;;6.32;;
69414;SDS011;56608;43.530;-5.652;2023-04-16T03:34:57;10.35;;;6.95;;
69414;SDS011;56608;43.530;-5.652;2023-04-16T03:35:59;8.98;;;6.30;;
69414;SDS011;56608;43.530;-5.652;2023-04-16T03:38:01;12.88;;;6.60;;
69414;SDS011;56608;43.530;-5.652;2023-04-16T03:39:03;13.83;;;6.37;;
69414;SDS011;56608;43.530;-5.652;2023-04-16T03:40:04;12.32;;;6.62;;
69414;SDS011;56608;43.530;-5.652;2023-04-16T03:41:07;12.25;;;6.60;;
69414;SDS011;56608;43.530;-5.652;2023-04-16T03:42:08;9.93;;;6.37;;
69414;SDS011;56608;43.530;-5.652;2023-04-16T03:43:09;13.95;;;6.70;;
69414;SDS011;56608;43.530;-5.652;2023-04-16T03:44:11;14.10;;;7.57;;
69414;SDS011;56608;43.530;-5.652;2023-04-16T03:45:12;14.10;;;7.10;;
69414;SDS011;56608;43.530;-5.652;2023-04-16T03:46:15;11.35;;;6.65;;
69414;SDS011;56608;43.530;-5.652;2023-04-16T03:47:16;12.50;;;7.20;;
69414;SDS011;56608;43.530;-5.652;2023-04-16T03:48:17;15.25;;;6.72;;
69414;SDS011;56608;43.530;-5.652;2023-04-16T03:49:19;11.88;;;6.78;;
69414;SDS011;56608;43.530;-5.652;2023-04-16T03:50:20;13.00;;;7.43;;
69414;SDS011;56608;43.530;-5.652;2023-04-16T03:51:22;10.80;;;6.93;;
69414;SDS011;56608;43.530;-5.652;2023-04-16T03:52:23;14.85;;;7.30;;
69414;SDS011;56608;43.530;-5.652;2023-04-16T03:53:25;11.30;;;7.05;;
69414;SDS011;56608;43.530;-5.652;2023-04-16T03:54:26;12.52;;;6.55;;
69414;SDS011;56608;43.530;-5.652;2023-04-16T03:55:27;16.52;;;7.80;;
69414;SDS011;56608;43.530;-5.652;2023-04-16T03:56:29;14.85;;;6.32;;
69414;SDS011;56608;43.530;-5.652;2023-04-16T03:57:30;15.05;;;7.40;;
69414;SDS011;56608;43.530;-5.652;2023-04-16T03:58:31;12.20;;;6.65;;
69414;SDS011;56608;43.530;-5.652;2023-04-16T03:59:33;11.07;;;7.10;;
69414;SDS011;56608;43.530;-5.652;2023-04-16T04:00:34;14.05;;;7.45;;
69414;SDS011;56608;43.530;-5.652;2023-04-16T04:01:36;12.52;;;7.25;;
69414;SDS011;56608;43.530;-5.652;2023-04-16T04:02:37;14.50;;;7.15;;
69414;SDS011;56608;43.530;-5.652;2023-04-16T04:03:38;16.37;;;7.60;;
69414;SDS011;56608;43.530;-5.652;2023-04-16T04:04:40;15.30;;;7.35;;
69414;SDS011;56608;43.530;-5.652;2023-04-16T04:05:41;17.73;;;7.32;;
69414;SDS011;56608;43.530;-5.652;2023-04-16T04:06:43;19.50;;;9.00;;
69414;SDS011;56608;43.530;-5.652;2023-04-16T04:07:45;14.75;;;7.55;;
69414;SDS011;56608;43.530;-5.652;2023-04-16T04:08:47;17.60;;;8.25;;
69414;SDS011;56608;43.530;-5.652;2023-04-16T04:09:48;20.80;;;8.23;;
69414;SDS011;56608;43.530;-5.652;2023-04-16T04:10:49;15.63;;;7.57;;
69414;SDS011;56608;43.530;-5.652;2023-04-16T04:11:51;21.83;;;8.75;;
69414;SDS011;56608;43.530;-5.652;2023-04-16T04:12:52;18.67;;;8.77;;
69414;SDS011;56608;43.530;-5.652;2023-04-16T04:13:54;23.10;;;8.85;;
69414;SDS011;56608;43.530;-5.652;2023-04-16T04:14:55;18.10;;;9.25;;
69414;SDS011;56608;43.530;-5.652;2023-04-16T04:15:55;18.30;;;8.97;;
69414;SDS011;56608;43.530;-5.652;2023-04-16T04:16:57;20.10;;;9.05;;
69414;SDS011;56608;43.530;-5.652;2023-04-16T04:17:59;20.42;;;9.52;;
69414;SDS011;56608;43.530;-5.652;2023-04-16T04:19:00;24.30;;;9.60;;
69414;SDS011;56608;43.530;-5.652;2023-04-16T04:20:02;21.85;;;10.40;;
69414;SDS011;56608;43.530;-5.652;2023-04-16T04:22:07;26.60;;;10.55;;
69414;SDS011;56608;43.530;-5.652;2023-04-16T04:23:08;26.62;;;11.35;;
69414;SDS011;56608;43.530;-5.652;2023-04-16T04:24:10;22.20;;;10.40;;
69414;SDS011;56608;43.530;-5.652;2023-04-16T04:25:10;21.15;;;10.10;;
69414;SDS011;56608;43.530;-5.652;2023-04-16T04:26:11;24.85;;;10.60;;
69414;SDS011;56608;43.530;-5.652;2023-04-16T04:27:12;25.55;;;10.45;;
69414;SDS011;56608;43.530;-5.652;2023-04-16T04:28:13;25.23;;;11.05;;
69414;SDS011;56608;43.530;-5.652;2023-04-16T04:30:16;19.00;;;9.35;;
69414;SDS011;56608;43.530;-5.652;2023-04-16T04:31:17;29.90;;;10.95;;
69414;SDS011;56608;43.530;-5.652;2023-04-16T04:32:19;22.25;;;10.45;;
69414;SDS011;56608;43.530;-5.652;2023-04-16T04:33:20;27.62;;;9.75;;
69414;SDS011;56608;43.530;-5.652;2023-04-16T04:34:22;27.20;;;11.57;;
69414;SDS011;56608;43.530;-5.652;2023-04-16T04:35:23;26.35;;;11.00;;
69414;SDS011;56608;43.530;-5.652;2023-04-16T04:36:24;20.65;;;10.45;;
69414;SDS011;56608;43.530;-5.652;2023-04-16T04:37:26;24.80;;;10.70;;
69414;SDS011;56608;43.530;-5.652;2023-04-16T04:38:27;26.30;;;10.40;;
69414;SDS011;56608;43.530;-5.652;2023-04-16T04:39:30;24.35;;;9.95;;
69414;SDS011;56608;43.530;-5.652;2023-04-16T04:41:31;25.25;;;10.77;;
69414;SDS011;56608;43.530;-5.652;2023-04-16T04:42:33;24.05;;;10.05;;
69414;SDS011;56608;43.530;-5.652;2023-04-16T04:43:35;24.33;;;9.80;;
69414;SDS011;56608;43.530;-5.652;2023-04-16T04:44:36;19.67;;;8.98;;
69414;SDS011;56608;43.530;-5.652;2023-04-16T04:45:38;22.10;;;9.70;;
69414;SDS011;56608;43.530;-5.652;2023-04-16T04:46:39;24.25;;;8.80;;
69414;SDS011;56608;43.530;-5.652;2023-04-16T04:47:40;24.52;;;9.23;;
69414;SDS011;56608;43.530;-5.652;2023-04-16T04:48:42;23.65;;;9.60;;
69414;SDS011;56608;43.530;-5.652;2023-04-16T04:49:43;18.65;;;9.18;;
69414;SDS011;56608;43.530;-5.652;2023-04-16T04:50:45;20.33;;;8.93;;
69414;SDS011;56608;43.530;-5.652;2023-04-16T04:51:46;20.85;;;9.45;;
69414;SDS011;56608;43.530;-5.652;2023-04-16T04:52:48;24.00;;;8.57;;
69414;SDS011;56608;43.530;-5.652;2023-04-16T04:53:48;24.80;;;9.35;;
69414;SDS011;56608;43.530;-5.652;2023-04-16T04:54:51;17.50;;;8.30;;
69414;SDS011;56608;43.530;-5.652;2023-04-16T04:55:52;21.20;;;9.90;;
69414;SDS011;56608;43.530;-5.652;2023-04-16T04:56:53;20.60;;;9.33;;
69414;SDS011;56608;43.530;-5.652;2023-04-16T04:57:55;21.25;;;9.90;;
69414;SDS011;56608;43.530;-5.652;2023-04-16T04:58:56;19.80;;;9.55;;
69414;SDS011;56608;43.530;-5.652;2023-04-16T04:59:57;20.80;;;9.05;;
69414;SDS011;56608;43.530;-5.652;2023-04-16T05:00:59;21.70;;;9.45;;
69414;SDS011;56608;43.530;-5.652;2023-04-16T05:02:00;24.02;;;10.30;;
69414;SDS011;56608;43.530;-5.652;2023-04-16T05:03:04;26.60;;;10.30;;
69414;SDS011;56608;43.530;-5.652;2023-04-16T05:04:09;21.15;;;9.40;;
69414;SDS011;56608;43.530;-5.652;2023-04-16T05:05:10;20.00;;;9.30;;
69414;SDS011;56608;43.530;-5.652;2023-04-16T05:06:12;22.45;;;9.73;;
69414;SDS011;56608;43.530;-5.652;2023-04-16T05:07:13;20.88;;;9.77;;
69414;SDS011;56608;43.530;-5.652;2023-04-16T05:08:15;19.50;;;9.68;;
69414;SDS011;56608;43.530;-5.652;2023-04-16T05:09:16;22.83;;;9.57;;
69414;SDS011;56608;43.530;-5.652;2023-04-16T05:10:18;18.90;;;9.48;;
69414;SDS011;56608;43.530;-5.652;2023-04-16T05:11:19;19.65;;;9.90;;
69414;SDS011;56608;43.530;-5.652;2023-04-16T05:13:22;18.17;;;9.20;;
69414;SDS011;56608;43.530;-5.652;2023-04-16T05:14:24;18.15;;;9.75;;
69414;SDS011;56608;43.530;-5.652;2023-04-16T05:15:25;22.95;;;10.10;;
69414;SDS011;56608;43.530;-5.652;2023-04-16T05:16:26;17.05;;;9.23;;
69414;SDS011;56608;43.530;-5.652;2023-04-16T05:17:28;21.33;;;9.98;;
69414;SDS011;56608;43.530;-5.652;2023-04-16T05:18:29;19.77;;;10.07;;
69414;SDS011;56608;43.530;-5.652;2023-04-16T05:19:32;21.85;;;9.60;;
69414;SDS011;56608;43.530;-5.652;2023-04-16T05:20:33;20.20;;;9.70;;
69414;SDS011;56608;43.530;-5.652;2023-04-16T05:21:35;20.80;;;9.90;;
69414;SDS011;56608;43.530;-5.652;2023-04-16T05:22:35;20.45;;;9.85;;
69414;SDS011;56608;43.530;-5.652;2023-04-16T05:23:37;18.15;;;9.65;;
69414;SDS011;56608;43.530;-5.652;2023-04-16T05:24:39;20.92;;;9.95;;
69414;SDS011;56608;43.530;-5.652;2023-04-16T05:26:42;18.37;;;9.90;;
69414;SDS011;56608;43.530;-5.652;2023-04-16T05:27:42;24.35;;;10.00;;
69414;SDS011;56608;43.530;-5.652;2023-04-16T05:28:44;17.85;;;9.65;;
69414;SDS011;56608;43.530;-5.652;2023-04-16T05:29:45;22.00;;;10.60;;
69414;SDS011;56608;43.530;-5.652;2023-04-16T05:30:47;17.58;;;9.52;;
69414;SDS011;56608;43.530;-5.652;2023-04-16T05:31:48;18.60;;;10.02;;
69414;SDS011;56608;43.530;-5.652;2023-04-16T05:32:49;22.33;;;10.65;;
69414;SDS011;56608;43.530;-5.652;2023-04-16T05:34:52;18.20;;;10.18;;
69414;SDS011;56608;43.530;-5.652;2023-04-16T05:35:53;21.73;;;10.38;;
69414;SDS011;56608;43.530;-5.652;2023-04-16T05:36:55;21.67;;;10.02;;
69414;SDS011;56608;43.530;-5.652;2023-04-16T05:37:56;19.62;;;10.63;;
69414;SDS011;56608;43.530;-5.652;2023-04-16T05:38:58;21.67;;;10.75;;
69414;SDS011;56608;43.530;-5.652;2023-04-16T05:39:58;24.73;;;11.63;;
69414;SDS011;56608;43.530;-5.652;2023-04-16T05:40:58;25.73;;;10.93;;
69414;SDS011;56608;43.530;-5.652;2023-04-16T05:42:00;21.70;;;11.05;;
69414;SDS011;56608;43.530;-5.652;2023-04-16T05:43:02;27.00;;;12.10;;
69414;SDS011;56608;43.530;-5.652;2023-04-16T05:44:03;23.40;;;10.80;;
69414;SDS011;56608;43.530;-5.652;2023-04-16T05:45:05;22.35;;;11.00;;
69414;SDS011;56608;43.530;-5.652;2023-04-16T05:46:07;21.95;;;11.00;;
69414;SDS011;56608;43.530;-5.652;2023-04-16T05:47:08;23.47;;;11.87;;
69414;SDS011;56608;43.530;-5.652;2023-04-16T05:48:10;24.98;;;10.77;;
69414;SDS011;56608;43.530;-5.652;2023-04-16T05:49:12;23.90;;;11.10;;
69414;SDS011;56608;43.530;-5.652;2023-04-16T05:50:12;25.30;;;11.55;;
69414;SDS011;56608;43.530;-5.652;2023-04-16T05:51:14;23.45;;;11.15;;
69414;SDS011;56608;43.530;-5.652;2023-04-16T05:52:16;23.83;;;11.75;;
69414;SDS011;56608;43.530;-5.652;2023-04-16T05:53:16;25.25;;;11.75;;
69414;SDS011;56608;43.530;-5.652;2023-04-16T05:54:18;24.50;;;10.95;;
69414;SDS011;56608;43.530;-5.652;2023-04-16T05:55:19;22.95;;;11.20;;
69414;SDS011;56608;43.530;-5.652;2023-04-16T05:56:21;23.95;;;12.02;;
69414;SDS011;56608;43.530;-5.652;2023-04-16T05:57:23;23.07;;;11.17;;
69414;SDS011;56608;43.530;-5.652;2023-04-16T05:58:24;23.40;;;11.70;;
69414;SDS011;56608;43.530;-5.652;2023-04-16T05:59:26;22.75;;;11.73;;
69414;SDS011;56608;43.530;-5.652;2023-04-16T06:00:26;24.10;;;11.40;;
69414;SDS011;56608;43.530;-5.652;2023-04-16T06:01:28;21.70;;;11.25;;
69414;SDS011;56608;43.530;-5.652;2023-04-16T06:02:30;23.50;;;11.60;;
69414;SDS011;56608;43.530;-5.652;2023-04-16T06:03:31;21.87;;;11.48;;
69414;SDS011;56608;43.530;-5.652;2023-04-16T06:04:33;24.15;;;11.93;;
69414;SDS011;56608;43.530;-5.652;2023-04-16T06:05:34;25.10;;;11.70;;
69414;SDS011;56608;43.530;-5.652;2023-04-16T06:06:36;21.10;;;11.40;;
69414;SDS011;56608;43.530;-5.652;2023-04-16T06:07:38;20.08;;;11.15;;
69414;SDS011;56608;43.530;-5.652;2023-04-16T06:08:39;28.42;;;11.82;;
69414;SDS011;56608;43.530;-5.652;2023-04-16T06:09:41;21.00;;;11.38;;
69414;SDS011;56608;43.530;-5.652;2023-04-16T06:10:42;21.37;;;11.48;;
69414;SDS011;56608;43.530;-5.652;2023-04-16T06:11:46;22.15;;;11.70;;
69414;SDS011;56608;43.530;-5.652;2023-04-16T06:12:48;21.75;;;11.70;;